sensor_id;sensor_type;location;lat;lon;timestamp;P1;durP1;ratioP1;P2;durP2;ratioP2
10293;SDS011;5192;50.328;7.610;2023-06-14T00:00:50;7.50;;;5.30;;
10293;SDS011;5192;50.328;7.610;2023-06-14T00:03:18;5.80;;;5.20;;
10293;SDS011;5192;50.328;7.610;2023-06-14T00:05:48;7.10;;;5.30;;
10293;SDS011;5192;50.328;7.610;2023-06-14T00:08:16;5.80;;;5.10;;
10293;SDS011;5192;50.328;7.610;2023-06-14T00:10:45;6.33;;;5.37;;
10293;SDS011;5192;50.328;7.610;2023-06-14T00:13:13;6.00;;;5.40;;
10293;SDS011;5192;50.328;7.610;2023-06-14T00:15:41;5.93;;;5.33;;
10293;SDS011;5192;50.328;7.610;2023-06-14T00:18:07;7.00;;;5.90;;
10293;SDS011;5192;50.328;7.610;2023-06-14T00:20:38;6.03;;;5.47;;
10293;SDS011;5192;50.328;7.610;2023-06-14T00:23:05;6.20;;;5.60;;
10293;SDS011;5192;50.328;7.610;2023-06-14T00:25:33;7.67;;;5.57;;
10293;SDS011;5192;50.328;7.610;2023-06-14T00:27:59;6.33;;;5.73;;
10293;SDS011;5192;50.328;7.610;2023-06-14T00:30:27;6.30;;;5.63;;
10293;SDS011;5192;50.328;7.610;2023-06-14T00:32:57;6.77;;;5.90;;
10293;SDS011;5192;50.328;7.610;2023-06-14T00:35:24;7.07;;;5.50;;
10293;SDS011;5192;50.328;7.610;2023-06-14T00:37:52;5.63;;;5.10;;
10293;SDS011;5192;50.328;7.610;2023-06-14T00:40:20;6.00;;;5.40;;
10293;SDS011;5192;50.328;7.610;2023-06-14T00:42:48;6.00;;;5.40;;
10293;SDS011;5192;50.328;7.610;2023-06-14T00:45:15;9.27;;;5.40;;
10293;SDS011;5192;50.328;7.610;2023-06-14T00:47:43;5.93;;;5.33;;
10293;SDS011;5192;50.328;7.610;2023-06-14T00:50:11;6.43;;;5.63;;
10293;SDS011;5192;50.328;7.610;2023-06-14T00:52:40;5.87;;;5.37;;
10293;SDS011;5192;50.328;7.610;2023-06-14T00:55:06;8.50;;;5.80;;
10293;SDS011;5192;50.328;7.610;2023-06-14T00:57:34;5.83;;;5.33;;
10293;SDS011;5192;50.328;7.610;2023-06-14T01:00:03;6.43;;;5.10;;
10293;SDS011;5192;50.328;7.610;2023-06-14T01:02:38;7.63;;;5.77;;
10293;SDS011;5192;50.328;7.610;2023-06-14T01:05:07;5.83;;;5.30;;
10293;SDS011;5192;50.328;7.610;2023-06-14T01:10:40;8.37;;;5.70;;
10293;SDS011;5192;50.328;7.610;2023-06-14T01:16:13;6.53;;;5.20;;
10293;SDS011;5192;50.328;7.610;2023-06-14T01:18:41;7.40;;;5.73;;
10293;SDS011;5192;50.328;7.610;2023-06-14T01:21:24;6.00;;;5.50;;
10293;SDS011;5192;50.328;7.610;2023-06-14T01:23:51;6.30;;;5.70;;
10293;SDS011;5192;50.328;7.610;2023-06-14T01:26:21;6.07;;;5.47;;
10293;SDS011;5192;50.328;7.610;2023-06-14T01:28:49;8.53;;;6.57;;
10293;SDS011;5192;50.328;7.610;2023-06-14T01:31:23;6.27;;;5.67;;
10293;SDS011;5192;50.328;7.610;2023-06-14T01:33:52;6.13;;;5.30;;
10293;SDS011;5192;50.328;7.610;2023-06-14T01:36:18;6.00;;;5.40;;
10293;SDS011;5192;50.328;7.610;2023-06-14T01:38:46;6.13;;;5.53;;
10293;SDS011;5192;50.328;7.610;2023-06-14T01:41:17;6.13;;;5.47;;
10293;SDS011;5192;50.328;7.610;2023-06-14T01:43:49;7.50;;;5.67;;
10293;SDS011;5192;50.328;7.610;2023-06-14T01:46:17;7.80;;;6.37;;
10293;SDS011;5192;50.328;7.610;2023-06-14T01:48:44;6.27;;;5.47;;
10293;SDS011;5192;50.328;7.610;2023-06-14T01:51:11;7.57;;;5.93;;
10293;SDS011;5192;50.328;7.610;2023-06-14T01:53:37;5.67;;;5.17;;
10293;SDS011;5192;50.328;7.610;2023-06-14T01:56:05;6.17;;;5.23;;
10293;SDS011;5192;50.328;7.610;2023-06-14T01:58:31;6.80;;;5.23;;
10293;SDS011;5192;50.328;7.610;2023-06-14T02:00:59;6.73;;;5.60;;
10293;SDS011;5192;50.328;7.610;2023-06-14T02:03:27;7.47;;;5.93;;
10293;SDS011;5192;50.328;7.610;2023-06-14T02:05:53;6.90;;;5.43;;
10293;SDS011;5192;50.328;7.610;2023-06-14T02:08:21;5.70;;;5.20;;
10293;SDS011;5192;50.328;7.610;2023-06-14T02:10:49;6.13;;;5.20;;
10293;SDS011;5192;50.328;7.610;2023-06-14T02:13:16;5.77;;;5.27;;
10293;SDS011;5192;50.328;7.610;2023-06-14T02:15:44;5.83;;;5.33;;
10293;SDS011;5192;50.328;7.610;2023-06-14T02:18:12;6.07;;;5.57;;
10293;SDS011;5192;50.328;7.610;2023-06-14T02:20:39;6.77;;;5.50;;
10293;SDS011;5192;50.328;7.610;2023-06-14T02:23:06;5.60;;;5.07;;
10293;SDS011;5192;50.328;7.610;2023-06-14T02:25:34;7.40;;;5.50;;
10293;SDS011;5192;50.328;7.610;2023-06-14T02:28:00;6.97;;;5.77;;
10293;SDS011;5192;50.328;7.610;2023-06-14T02:30:29;6.70;;;5.37;;
10293;SDS011;5192;50.328;7.610;2023-06-14T02:32:57;5.90;;;5.40;;
10293;SDS011;5192;50.328;7.610;2023-06-14T02:35:24;7.27;;;5.47;;
10293;SDS011;5192;50.328;7.610;2023-06-14T02:37:53;5.90;;;5.30;;
10293;SDS011;5192;50.328;7.610;2023-06-14T02:40:20;6.77;;;5.30;;
10293;SDS011;5192;50.328;7.610;2023-06-14T02:42:45;5.47;;;4.97;;
10293;SDS011;5192;50.328;7.610;2023-06-14T02:45:14;6.17;;;5.40;;
10293;SDS011;5192;50.328;7.610;2023-06-14T02:47:43;6.00;;;5.40;;
10293;SDS011;5192;50.328;7.610;2023-06-14T02:50:11;6.20;;;5.60;;
10293;SDS011;5192;50.328;7.610;2023-06-14T02:52:38;5.93;;;5.23;;
10293;SDS011;5192;50.328;7.610;2023-06-14T02:55:07;7.23;;;5.43;;
10293;SDS011;5192;50.328;7.610;2023-06-14T02:57:35;7.67;;;5.50;;
10293;SDS011;5192;50.328;7.610;2023-06-14T03:00:04;5.80;;;5.07;;
10293;SDS011;5192;50.328;7.610;2023-06-14T03:02:31;5.53;;;5.03;;
10293;SDS011;5192;50.328;7.610;2023-06-14T03:04:58;5.97;;;5.10;;
10293;SDS011;5192;50.328;7.610;2023-06-14T03:07:30;5.40;;;4.90;;
10293;SDS011;5192;50.328;7.610;2023-06-14T03:09:57;7.13;;;5.27;;
10293;SDS011;5192;50.328;7.610;2023-06-14T03:12:26;5.50;;;5.00;;
10293;SDS011;5192;50.328;7.610;2023-06-14T03:14:53;5.40;;;4.90;;
10293;SDS011;5192;50.328;7.610;2023-06-14T03:17:23;5.40;;;4.80;;
10293;SDS011;5192;50.328;7.610;2023-06-14T03:19:56;6.37;;;4.47;;
10293;SDS011;5192;50.328;7.610;2023-06-14T03:22:23;5.47;;;4.60;;
10293;SDS011;5192;50.328;7.610;2023-06-14T03:24:50;7.33;;;5.53;;
10293;SDS011;5192;50.328;7.610;2023-06-14T03:27:21;5.87;;;5.37;;
10293;SDS011;5192;50.328;7.610;2023-06-14T03:29:48;6.30;;;4.80;;
10293;SDS011;5192;50.328;7.610;2023-06-14T03:32:15;5.93;;;4.90;;
10293;SDS011;5192;50.328;7.610;2023-06-14T03:34:41;5.50;;;5.00;;
10293;SDS011;5192;50.328;7.610;2023-06-14T03:37:08;6.43;;;5.40;;
10293;SDS011;5192;50.328;7.610;2023-06-14T03:39:35;7.80;;;5.03;;
10293;SDS011;5192;50.328;7.610;2023-06-14T03:42:02;6.30;;;4.47;;
10293;SDS011;5192;50.328;7.610;2023-06-14T03:44:32;5.53;;;4.73;;
10293;SDS011;5192;50.328;7.610;2023-06-14T03:47:00;7.70;;;5.10;;
10293;SDS011;5192;50.328;7.610;2023-06-14T03:49:28;5.97;;;4.90;;
10293;SDS011;5192;50.328;7.610;2023-06-14T03:51:54;5.50;;;5.00;;
10293;SDS011;5192;50.328;7.610;2023-06-14T03:54:22;4.83;;;4.43;;
10293;SDS011;5192;50.328;7.610;2023-06-14T03:56:49;5.97;;;5.20;;
10293;SDS011;5192;50.328;7.610;2023-06-14T03:59:17;7.17;;;5.00;;
10293;SDS011;5192;50.328;7.610;2023-06-14T04:01:43;6.37;;;5.70;;
10293;SDS011;5192;50.328;7.610;2023-06-14T04:04:11;6.53;;;5.80;;
10293;SDS011;5192;50.328;7.610;2023-06-14T04:06:38;6.90;;;5.03;;
10293;SDS011;5192;50.328;7.610;2023-06-14T04:09:07;5.53;;;4.87;;
10293;SDS011;5192;50.328;7.610;2023-06-14T04:11:35;6.80;;;4.97;;
10293;SDS011;5192;50.328;7.610;2023-06-14T04:14:02;6.07;;;5.20;;
10293;SDS011;5192;50.328;7.610;2023-06-14T04:16:29;5.97;;;4.77;;
10293;SDS011;5192;50.328;7.610;2023-06-14T04:18:57;5.83;;;4.57;;
10293;SDS011;5192;50.328;7.610;2023-06-14T04:21:23;5.50;;;5.00;;
10293;SDS011;5192;50.328;7.610;2023-06-14T04:23:49;6.00;;;5.13;;
10293;SDS011;5192;50.328;7.610;2023-06-14T04:26:19;6.30;;;5.40;;
10293;SDS011;5192;50.328;7.610;2023-06-14T04:28:49;6.47;;;4.83;;
10293;SDS011;5192;50.328;7.610;2023-06-14T04:31:17;5.27;;;4.77;;
10293;SDS011;5192;50.328;7.610;2023-06-14T04:33:44;4.80;;;4.33;;
10293;SDS011;5192;50.328;7.610;2023-06-14T04:36:13;5.87;;;5.17;;
10293;SDS011;5192;50.328;7.610;2023-06-14T04:38:44;8.13;;;5.17;;
10293;SDS011;5192;50.328;7.610;2023-06-14T04:41:18;5.67;;;5.10;;
10293;SDS011;5192;50.328;7.610;2023-06-14T04:43:48;5.40;;;4.60;;
10293;SDS011;5192;50.328;7.610;2023-06-14T04:46:16;5.77;;;5.23;;
10293;SDS011;5192;50.328;7.610;2023-06-14T04:48:44;6.03;;;5.27;;
10293;SDS011;5192;50.328;7.610;2023-06-14T04:51:15;8.93;;;6.13;;
10293;SDS011;5192;50.328;7.610;2023-06-14T04:53:46;8.67;;;6.50;;
10293;SDS011;5192;50.328;7.610;2023-06-14T04:56:16;5.53;;;5.03;;
10293;SDS011;5192;50.328;7.610;2023-06-14T04:58:43;5.73;;;5.13;;
10293;SDS011;5192;50.328;7.610;2023-06-14T05:01:09;6.27;;;5.33;;
10293;SDS011;5192;50.328;7.610;2023-06-14T05:03:38;7.73;;;5.40;;
10293;SDS011;5192;50.328;7.610;2023-06-14T05:06:08;5.20;;;4.70;;
10293;SDS011;5192;50.328;7.610;2023-06-14T05:08:35;7.00;;;4.73;;
10293;SDS011;5192;50.328;7.610;2023-06-14T05:11:00;5.67;;;4.80;;
10293;SDS011;5192;50.328;7.610;2023-06-14T05:13:31;4.93;;;4.53;;
10293;SDS011;5192;50.328;7.610;2023-06-14T05:16:01;7.70;;;5.30;;
10293;SDS011;5192;50.328;7.610;2023-06-14T05:18:30;5.77;;;5.17;;
10293;SDS011;5192;50.328;7.610;2023-06-14T05:20:57;5.57;;;4.90;;
10293;SDS011;5192;50.328;7.610;2023-06-14T05:23:24;6.80;;;5.30;;
10293;SDS011;5192;50.328;7.610;2023-06-14T05:25:51;5.97;;;5.37;;
10293;SDS011;5192;50.328;7.610;2023-06-14T05:28:20;6.20;;;5.37;;
10293;SDS011;5192;50.328;7.610;2023-06-14T05:30:47;7.93;;;5.63;;
10293;SDS011;5192;50.328;7.610;2023-06-14T05:33:14;7.93;;;4.83;;
10293;SDS011;5192;50.328;7.610;2023-06-14T05:35:42;5.30;;;4.80;;
10293;SDS011;5192;50.328;7.610;2023-06-14T05:38:07;5.17;;;4.67;;
10293;SDS011;5192;50.328;7.610;2023-06-14T05:40:35;6.03;;;5.43;;
10293;SDS011;5192;50.328;7.610;2023-06-14T05:43:02;9.03;;;5.30;;
10293;SDS011;5192;50.328;7.610;2023-06-14T05:45:30;5.17;;;4.70;;
10293;SDS011;5192;50.328;7.610;2023-06-14T05:47:55;5.20;;;4.77;;
10293;SDS011;5192;50.328;7.610;2023-06-14T05:50:21;7.13;;;5.50;;
10293;SDS011;5192;50.328;7.610;2023-06-14T05:52:49;6.57;;;5.37;;
10293;SDS011;5192;50.328;7.610;2023-06-14T05:55:16;5.30;;;4.80;;
10293;SDS011;5192;50.328;7.610;2023-06-14T05:57:42;5.83;;;4.97;;
10293;SDS011;5192;50.328;7.610;2023-06-14T06:00:10;6.13;;;5.10;;
10293;SDS011;5192;50.328;7.610;2023-06-14T06:02:43;8.67;;;5.10;;
10293;SDS011;5192;50.328;7.610;2023-06-14T06:05:13;5.83;;;5.20;;
10293;SDS011;5192;50.328;7.610;2023-06-14T06:07:41;5.60;;;4.93;;
10293;SDS011;5192;50.328;7.610;2023-06-14T06:10:09;6.00;;;4.90;;
10293;SDS011;5192;50.328;7.610;2023-06-14T06:12:36;7.10;;;4.90;;
10293;SDS011;5192;50.328;7.610;2023-06-14T06:15:04;9.17;;;4.50;;
10293;SDS011;5192;50.328;7.610;2023-06-14T06:17:32;6.30;;;4.60;;
10293;SDS011;5192;50.328;7.610;2023-06-14T06:20:00;5.93;;;4.70;;
10293;SDS011;5192;50.328;7.610;2023-06-14T06:22:28;5.30;;;4.27;;
10293;SDS011;5192;50.328;7.610;2023-06-14T06:24:55;7.40;;;4.50;;
10293;SDS011;5192;50.328;7.610;2023-06-14T06:27:23;6.03;;;4.50;;
10293;SDS011;5192;50.328;7.610;2023-06-14T06:29:50;7.37;;;4.50;;
10293;SDS011;5192;50.328;7.610;2023-06-14T06:32:18;6.40;;;4.80;;
10293;SDS011;5192;50.328;7.610;2023-06-14T06:34:44;5.97;;;4.50;;
10293;SDS011;5192;50.328;7.610;2023-06-14T06:37:13;4.80;;;4.37;;
10293;SDS011;5192;50.328;7.610;2023-06-14T06:39:40;6.73;;;4.27;;
10293;SDS011;5192;50.328;7.610;2023-06-14T06:42:05;5.90;;;4.25;;
10293;SDS011;5192;50.328;7.610;2023-06-14T06:44:31;6.90;;;4.40;;
10293;SDS011;5192;50.328;7.610;2023-06-14T06:46:57;5.35;;;4.10;;
10293;SDS011;5192;50.328;7.610;2023-06-14T06:49:24;5.57;;;4.15;;
10293;SDS011;5192;50.328;7.610;2023-06-14T06:52:03;9.20;;;4.30;;
10293;SDS011;5192;50.328;7.610;2023-06-14T06:54:32;5.10;;;4.37;;
10293;SDS011;5192;50.328;7.610;2023-06-14T06:57:04;5.78;;;4.13;;
10293;SDS011;5192;50.328;7.610;2023-06-14T06:59:31;7.45;;;4.35;;
10293;SDS011;5192;50.328;7.610;2023-06-14T07:01:58;6.25;;;4.00;;
10293;SDS011;5192;50.328;7.610;2023-06-14T07:04:24;5.93;;;4.40;;
10293;SDS011;5192;50.328;7.610;2023-06-14T07:06:51;5.90;;;3.90;;
10293;SDS011;5192;50.328;7.610;2023-06-14T07:09:19;6.05;;;3.80;;
10293;SDS011;5192;50.328;7.610;2023-06-14T07:11:47;4.13;;;3.63;;
10293;SDS011;5192;50.328;7.610;2023-06-14T07:14:13;6.80;;;3.60;;
10293;SDS011;5192;50.328;7.610;2023-06-14T07:16:41;6.85;;;3.88;;
10293;SDS011;5192;50.328;7.610;2023-06-14T07:19:08;8.88;;;3.90;;
10293;SDS011;5192;50.328;7.610;2023-06-14T07:21:36;5.40;;;4.88;;
10293;SDS011;5192;50.328;7.610;2023-06-14T07:24:06;5.85;;;4.22;;
10293;SDS011;5192;50.328;7.610;2023-06-14T07:26:32;5.50;;;3.90;;
10293;SDS011;5192;50.328;7.610;2023-06-14T07:28:59;5.90;;;3.90;;
10293;SDS011;5192;50.328;7.610;2023-06-14T07:31:27;4.88;;;3.78;;
10293;SDS011;5192;50.328;7.610;2023-06-14T07:33:53;6.28;;;4.10;;
10293;SDS011;5192;50.328;7.610;2023-06-14T07:36:22;5.32;;;4.10;;
10293;SDS011;5192;50.328;7.610;2023-06-14T07:38:48;4.07;;;3.67;;
10293;SDS011;5192;50.328;7.610;2023-06-14T07:41:17;5.63;;;4.03;;
10293;SDS011;5192;50.328;7.610;2023-06-14T07:43:42;5.15;;;3.70;;
10293;SDS011;5192;50.328;7.610;2023-06-14T07:46:12;4.25;;;3.67;;
10293;SDS011;5192;50.328;7.610;2023-06-14T07:48:40;7.03;;;2.97;;
10293;SDS011;5192;50.328;7.610;2023-06-14T07:51:08;3.40;;;3.10;;
10293;SDS011;5192;50.328;7.610;2023-06-14T07:53:35;4.78;;;3.30;;
10293;SDS011;5192;50.328;7.610;2023-06-14T07:56:03;3.65;;;3.30;;
10293;SDS011;5192;50.328;7.610;2023-06-14T07:58:30;5.60;;;3.47;;
10293;SDS011;5192;50.328;7.610;2023-06-14T08:00:58;7.97;;;3.53;;
10293;SDS011;5192;50.328;7.610;2023-06-14T08:03:26;6.28;;;3.28;;
10293;SDS011;5192;50.328;7.610;2023-06-14T08:05:54;3.97;;;3.35;;
10293;SDS011;5192;50.328;7.610;2023-06-14T08:08:21;3.75;;;3.13;;
10293;SDS011;5192;50.328;7.610;2023-06-14T08:10:49;4.15;;;3.05;;
10293;SDS011;5192;50.328;7.610;2023-06-14T08:13:14;6.53;;;2.83;;
10293;SDS011;5192;50.328;7.610;2023-06-14T08:15:41;4.28;;;3.03;;
10293;SDS011;5192;50.328;7.610;2023-06-14T08:18:10;4.13;;;2.85;;
10293;SDS011;5192;50.328;7.610;2023-06-14T08:20:37;5.30;;;2.70;;
10293;SDS011;5192;50.328;7.610;2023-06-14T08:23:03;4.13;;;2.97;;
10293;SDS011;5192;50.328;7.610;2023-06-14T08:25:30;4.88;;;3.10;;
10293;SDS011;5192;50.328;7.610;2023-06-14T08:27:56;3.65;;;2.70;;
10293;SDS011;5192;50.328;7.610;2023-06-14T08:30:22;4.03;;;2.60;;
10293;SDS011;5192;50.328;7.610;2023-06-14T08:32:49;5.43;;;3.28;;
10293;SDS011;5192;50.328;7.610;2023-06-14T08:35:17;3.70;;;3.00;;
10293;SDS011;5192;50.328;7.610;2023-06-14T08:37:43;3.45;;;2.45;;
10293;SDS011;5192;50.328;7.610;2023-06-14T08:40:21;2.83;;;2.38;;
10293;SDS011;5192;50.328;7.610;2023-06-14T08:42:53;3.35;;;2.70;;
10293;SDS011;5192;50.328;7.610;2023-06-14T08:45:20;3.30;;;2.95;;
10293;SDS011;5192;50.328;7.610;2023-06-14T08:47:49;5.15;;;2.50;;
10293;SDS011;5192;50.328;7.610;2023-06-14T08:50:25;3.53;;;2.72;;
10293;SDS011;5192;50.328;7.610;2023-06-14T08:52:57;3.72;;;2.55;;
10293;SDS011;5192;50.328;7.610;2023-06-14T08:55:29;4.75;;;3.10;;
10293;SDS011;5192;50.328;7.610;2023-06-14T08:57:57;4.72;;;2.55;;
10293;SDS011;5192;50.328;7.610;2023-06-14T09:00:27;3.65;;;2.85;;
10293;SDS011;5192;50.328;7.610;2023-06-14T09:02:53;3.00;;;2.70;;
10293;SDS011;5192;50.328;7.610;2023-06-14T09:05:26;3.25;;;2.67;;
10293;SDS011;5192;50.328;7.610;2023-06-14T09:07:53;3.60;;;2.70;;
10293;SDS011;5192;50.328;7.610;2023-06-14T09:10:26;3.40;;;2.60;;
10293;SDS011;5192;50.328;7.610;2023-06-14T09:12:52;3.33;;;3.00;;
10293;SDS011;5192;50.328;7.610;2023-06-14T09:15:19;4.68;;;2.60;;
10293;SDS011;5192;50.328;7.610;2023-06-14T09:17:47;3.03;;;2.80;;
10293;SDS011;5192;50.328;7.610;2023-06-14T09:20:14;5.30;;;2.67;;
10293;SDS011;5192;50.328;7.610;2023-06-14T09:22:45;7.05;;;3.10;;
10293;SDS011;5192;50.328;7.610;2023-06-14T09:25:12;5.22;;;3.10;;
10293;SDS011;5192;50.328;7.610;2023-06-14T09:27:41;4.57;;;3.05;;
10293;SDS011;5192;50.328;7.610;2023-06-14T09:30:09;3.20;;;2.90;;
10293;SDS011;5192;50.328;7.610;2023-06-14T09:32:40;3.13;;;2.83;;
10293;SDS011;5192;50.328;7.610;2023-06-14T09:35:07;4.40;;;2.67;;
10293;SDS011;5192;50.328;7.610;2023-06-14T09:37:35;4.63;;;2.80;;
10293;SDS011;5192;50.328;7.610;2023-06-14T09:40:05;5.18;;;3.03;;
10293;SDS011;5192;50.328;7.610;2023-06-14T09:42:33;3.65;;;2.60;;
10293;SDS011;5192;50.328;7.610;2023-06-14T09:45:03;3.22;;;2.83;;
10293;SDS011;5192;50.328;7.610;2023-06-14T09:47:31;3.55;;;2.50;;
10293;SDS011;5192;50.328;7.610;2023-06-14T09:49:57;3.03;;;2.53;;
10293;SDS011;5192;50.328;7.610;2023-06-14T09:52:26;4.75;;;2.75;;
10293;SDS011;5192;50.328;7.610;2023-06-14T09:54:55;3.22;;;2.72;;
10293;SDS011;5192;50.328;7.610;2023-06-14T09:57:26;4.60;;;2.33;;
10293;SDS011;5192;50.328;7.610;2023-06-14T09:59:57;3.25;;;2.67;;
10293;SDS011;5192;50.328;7.610;2023-06-14T10:02:36;4.03;;;2.40;;
10293;SDS011;5192;50.328;7.610;2023-06-14T10:05:07;2.53;;;2.33;;
10293;SDS011;5192;50.328;7.610;2023-06-14T10:07:53;3.20;;;2.30;;
10293;SDS011;5192;50.328;7.610;2023-06-14T10:10:25;5.18;;;2.47;;
10293;SDS011;5192;50.328;7.610;2023-06-14T10:12:53;4.85;;;2.53;;
10293;SDS011;5192;50.328;7.610;2023-06-14T10:15:22;3.38;;;2.55;;
10293;SDS011;5192;50.328;7.610;2023-06-14T10:18:06;3.60;;;2.80;;
10293;SDS011;5192;50.328;7.610;2023-06-14T10:21:02;3.80;;;2.70;;
10293;SDS011;5192;50.328;7.610;2023-06-14T10:23:52;2.45;;;2.25;;
10293;SDS011;5192;50.328;7.610;2023-06-14T10:26:22;2.65;;;2.45;;
10293;SDS011;5192;50.328;7.610;2023-06-14T10:28:59;4.28;;;2.70;;
10293;SDS011;5192;50.328;7.610;2023-06-14T10:31:47;2.90;;;2.20;;
10293;SDS011;5192;50.328;7.610;2023-06-14T10:34:23;3.53;;;2.35;;
10293;SDS011;5192;50.328;7.610;2023-06-14T10:37:04;4.97;;;2.40;;
10293;SDS011;5192;50.328;7.610;2023-06-14T10:39:44;2.92;;;2.30;;
10293;SDS011;5192;50.328;7.610;2023-06-14T10:42:16;2.63;;;2.40;;
10293;SDS011;5192;50.328;7.610;2023-06-14T10:50:13;2.40;;;2.20;;
10293;SDS011;5192;50.328;7.610;2023-06-14T10:52:42;3.00;;;2.28;;
10293;SDS011;5192;50.328;7.610;2023-06-14T10:55:10;3.92;;;2.22;;
10293;SDS011;5192;50.328;7.610;2023-06-14T10:57:51;2.90;;;2.17;;
10293;SDS011;5192;50.328;7.610;2023-06-14T11:00:23;2.45;;;2.03;;
10293;SDS011;5192;50.328;7.610;2023-06-14T11:05:54;2.85;;;2.00;;
10293;SDS011;5192;50.328;7.610;2023-06-14T11:11:25;2.30;;;2.10;;
10293;SDS011;5192;50.328;7.610;2023-06-14T11:14:01;2.08;;;1.98;;
10293;SDS011;5192;50.328;7.610;2023-06-14T11:16:29;2.60;;;2.25;;
10293;SDS011;5192;50.328;7.610;2023-06-14T11:19:00;2.25;;;1.70;;
10293;SDS011;5192;50.328;7.610;2023-06-14T11:21:29;2.20;;;2.00;;
10293;SDS011;5192;50.328;7.610;2023-06-14T11:23:58;2.83;;;2.15;;
10293;SDS011;5192;50.328;7.610;2023-06-14T11:26:27;2.15;;;1.95;;
10293;SDS011;5192;50.328;7.610;2023-06-14T11:28:58;2.95;;;1.90;;
10293;SDS011;5192;50.328;7.610;2023-06-14T11:31:26;3.10;;;2.00;;
10293;SDS011;5192;50.328;7.610;2023-06-14T11:33:55;3.28;;;2.03;;
10293;SDS011;5192;50.328;7.610;2023-06-14T11:36:26;3.55;;;2.10;;
10293;SDS011;5192;50.328;7.610;2023-06-14T11:39:03;3.47;;;1.75;;
10293;SDS011;5192;50.328;7.610;2023-06-14T11:41:48;2.08;;;1.95;;
10293;SDS011;5192;50.328;7.610;2023-06-14T11:44:16;2.40;;;2.20;;
10293;SDS011;5192;50.328;7.610;2023-06-14T11:46:42;3.00;;;2.00;;
10293;SDS011;5192;50.328;7.610;2023-06-14T11:49:10;4.78;;;2.40;;
10293;SDS011;5192;50.328;7.610;2023-06-14T11:51:49;2.97;;;2.50;;
10293;SDS011;5192;50.328;7.610;2023-06-14T11:54:18;2.60;;;2.40;;
10293;SDS011;5192;50.328;7.610;2023-06-14T11:56:43;3.17;;;2.20;;
10293;SDS011;5192;50.328;7.610;2023-06-14T11:59:10;2.78;;;2.58;;
10293;SDS011;5192;50.328;7.610;2023-06-14T12:01:42;2.28;;;2.08;;
10293;SDS011;5192;50.328;7.610;2023-06-14T12:04:09;2.92;;;2.42;;
10293;SDS011;5192;50.328;7.610;2023-06-14T12:06:36;2.75;;;2.55;;
10293;SDS011;5192;50.328;7.610;2023-06-14T12:09:06;3.55;;;2.33;;
10293;SDS011;5192;50.328;7.610;2023-06-14T12:11:39;3.40;;;2.72;;
10293;SDS011;5192;50.328;7.610;2023-06-14T12:14:07;2.85;;;2.40;;
10293;SDS011;5192;50.328;7.610;2023-06-14T12:16:34;2.83;;;2.60;;
10293;SDS011;5192;50.328;7.610;2023-06-14T12:19:12;2.88;;;2.65;;
10293;SDS011;5192;50.328;7.610;2023-06-14T12:21:46;3.08;;;2.53;;
10293;SDS011;5192;50.328;7.610;2023-06-14T12:24:18;3.28;;;2.90;;
10293;SDS011;5192;50.328;7.610;2023-06-14T12:26:44;4.47;;;2.80;;
10293;SDS011;5192;50.328;7.610;2023-06-14T12:29:13;3.10;;;2.80;;
10293;SDS011;5192;50.328;7.610;2023-06-14T12:31:40;3.30;;;2.85;;
10293;SDS011;5192;50.328;7.610;2023-06-14T12:34:07;2.83;;;2.58;;
10293;SDS011;5192;50.328;7.610;2023-06-14T12:36:35;3.40;;;3.03;;
10293;SDS011;5192;50.328;7.610;2023-06-14T12:39:07;3.22;;;2.78;;
10293;SDS011;5192;50.328;7.610;2023-06-14T12:41:36;3.60;;;2.80;;
10293;SDS011;5192;50.328;7.610;2023-06-14T12:44:02;3.45;;;3.15;;
10293;SDS011;5192;50.328;7.610;2023-06-14T12:46:32;3.55;;;3.13;;
10293;SDS011;5192;50.328;7.610;2023-06-14T12:49:00;3.47;;;3.17;;
10293;SDS011;5192;50.328;7.610;2023-06-14T12:51:28;3.03;;;2.83;;
10293;SDS011;5192;50.328;7.610;2023-06-14T12:53:56;2.78;;;2.58;;
10293;SDS011;5192;50.328;7.610;2023-06-14T12:56:22;3.33;;;2.60;;
10293;SDS011;5192;50.328;7.610;2023-06-14T12:58:49;3.42;;;3.13;;
10293;SDS011;5192;50.328;7.610;2023-06-14T13:01:18;4.30;;;3.08;;
10293;SDS011;5192;50.328;7.610;2023-06-14T13:03:46;6.65;;;3.15;;
10293;SDS011;5192;50.328;7.610;2023-06-14T13:06:23;3.10;;;2.80;;
10293;SDS011;5192;50.328;7.610;2023-06-14T13:08:49;5.75;;;3.20;;
10293;SDS011;5192;50.328;7.610;2023-06-14T13:11:17;4.47;;;2.75;;
10293;SDS011;5192;50.328;7.610;2023-06-14T13:13:44;4.18;;;2.58;;
10293;SDS011;5192;50.328;7.610;2023-06-14T13:16:11;3.45;;;2.58;;
10293;SDS011;5192;50.328;7.610;2023-06-14T13:18:40;3.63;;;2.55;;
10293;SDS011;5192;50.328;7.610;2023-06-14T13:21:10;4.13;;;2.78;;
10293;SDS011;5192;50.328;7.610;2023-06-14T13:23:37;4.32;;;3.20;;
10293;SDS011;5192;50.328;7.610;2023-06-14T13:26:04;3.10;;;2.80;;
10293;SDS011;5192;50.328;7.610;2023-06-14T13:28:30;4.20;;;2.70;;
10293;SDS011;5192;50.328;7.610;2023-06-14T13:31:01;4.00;;;2.55;;
10293;SDS011;5192;50.328;7.610;2023-06-14T13:33:29;2.83;;;2.63;;
10293;SDS011;5192;50.328;7.610;2023-06-14T13:35:55;2.88;;;2.58;;
10293;SDS011;5192;50.328;7.610;2023-06-14T13:38:21;5.13;;;2.67;;
10293;SDS011;5192;50.328;7.610;2023-06-14T13:40:49;3.92;;;2.63;;
10293;SDS011;5192;50.328;7.610;2023-06-14T13:43:17;2.95;;;2.75;;
10293;SDS011;5192;50.328;7.610;2023-06-14T13:45:44;3.13;;;2.50;;
10293;SDS011;5192;50.328;7.610;2023-06-14T13:48:11;2.90;;;2.58;;
10293;SDS011;5192;50.328;7.610;2023-06-14T13:50:39;2.53;;;2.33;;
10293;SDS011;5192;50.328;7.610;2023-06-14T13:53:05;3.17;;;2.85;;
10293;SDS011;5192;50.328;7.610;2023-06-14T13:55:32;3.58;;;2.45;;
10293;SDS011;5192;50.328;7.610;2023-06-14T13:57:59;2.90;;;2.70;;
10293;SDS011;5192;50.328;7.610;2023-06-14T14:00:28;3.03;;;2.65;;
10293;SDS011;5192;50.328;7.610;2023-06-14T14:02:55;3.00;;;2.72;;
10293;SDS011;5192;50.328;7.610;2023-06-14T14:05:23;3.33;;;2.83;;
10293;SDS011;5192;50.328;7.610;2023-06-14T14:07:54;2.72;;;2.53;;
10293;SDS011;5192;50.328;7.610;2023-06-14T14:10:24;2.75;;;2.50;;
10293;SDS011;5192;50.328;7.610;2023-06-14T14:12:51;5.00;;;2.88;;
10293;SDS011;5192;50.328;7.610;2023-06-14T14:15:23;2.80;;;2.45;;
10293;SDS011;5192;50.328;7.610;2023-06-14T14:17:50;3.67;;;2.85;;
10293;SDS011;5192;50.328;7.610;2023-06-14T14:20:21;3.13;;;2.83;;
10293;SDS011;5192;50.328;7.610;2023-06-14T14:22:48;4.53;;;2.75;;
10293;SDS011;5192;50.328;7.610;2023-06-14T14:25:16;6.72;;;3.05;;
10293;SDS011;5192;50.328;7.610;2023-06-14T14:27:43;3.22;;;2.60;;
10293;SDS011;5192;50.328;7.610;2023-06-14T14:30:11;4.72;;;2.63;;
10293;SDS011;5192;50.328;7.610;2023-06-14T14:32:40;4.18;;;2.88;;
10293;SDS011;5192;50.328;7.610;2023-06-14T14:35:10;2.70;;;2.50;;
10293;SDS011;5192;50.328;7.610;2023-06-14T14:37:38;4.60;;;3.17;;
10293;SDS011;5192;50.328;7.610;2023-06-14T14:40:03;3.13;;;2.85;;
10293;SDS011;5192;50.328;7.610;2023-06-14T14:42:31;2.88;;;2.60;;
10293;SDS011;5192;50.328;7.610;2023-06-14T14:44:57;3.00;;;2.80;;
10293;SDS011;5192;50.328;7.610;2023-06-14T14:47:25;3.15;;;2.85;;
10293;SDS011;5192;50.328;7.610;2023-06-14T14:49:52;3.25;;;2.88;;
10293;SDS011;5192;50.328;7.610;2023-06-14T14:52:21;5.70;;;2.80;;
10293;SDS011;5192;50.328;7.610;2023-06-14T14:54:48;3.25;;;2.90;;
10293;SDS011;5192;50.328;7.610;2023-06-14T14:57:15;2.88;;;2.67;;
10293;SDS011;5192;50.328;7.610;2023-06-14T14:59:42;5.30;;;3.25;;
10293;SDS011;5192;50.328;7.610;2023-06-14T15:02:09;3.30;;;2.70;;
10293;SDS011;5192;50.328;7.610;2023-06-14T15:04:37;4.45;;;2.67;;
10293;SDS011;5192;50.328;7.610;2023-06-14T15:07:03;3.95;;;2.50;;
10293;SDS011;5192;50.328;7.610;2023-06-14T15:09:29;5.00;;;2.85;;
10293;SDS011;5192;50.328;7.610;2023-06-14T15:11:58;3.08;;;2.80;;
10293;SDS011;5192;50.328;7.610;2023-06-14T15:14:23;3.28;;;2.70;;
10293;SDS011;5192;50.328;7.610;2023-06-14T15:16:51;4.93;;;3.47;;
10293;SDS011;5192;50.328;7.610;2023-06-14T15:19:19;4.50;;;2.65;;
10293;SDS011;5192;50.328;7.610;2023-06-14T15:21:45;5.00;;;3.40;;
10293;SDS011;5192;50.328;7.610;2023-06-14T15:24:12;4.93;;;2.88;;
10293;SDS011;5192;50.328;7.610;2023-06-14T15:26:40;4.03;;;2.90;;